Time;durP1;ratioP1;P1;durP2;ratioP2;P2;SDS_P1;SDS_P2;PMS_P1;PMS_P2;Temp;Humidity;BMP_temperature;BMP_pressure;BME280_temperature;BME280_humidity;BME280_pressure;Samples;Min_cycle;Max_cycle;Signal;HPM_P1;HPM_P2
2022/09/11 00:01:54;;;;;;;;;;;;;;;-144.99;100.00;52333.94;5008658;28;19976;-65
2022/09/11 00:04:20;;;;;;;;;;;;;;;-144.99;100.00;52350.25;5007454;28;20381;-63
2022/09/11 00:06:47;;;;;;;;;;;;;;;-144.99;100.00;52360.44;5008268;28;19932;-63
2022/09/11 00:09:13;;;;;;;;;;;;;;;-144.99;100.00;52370.63;5007639;28;20238;-62
2022/09/11 00:11:40;;;;;;;;;;;;;;;-144.99;100.00;52370.63;5009664;28;19933;-62
2022/09/11 00:14:07;;;;;;;;;;;;;;;-144.99;100.00;52350.25;5007587;28;19952;-63
2022/09/11 00:16:34;;;;;;;;;;;;;;;-144.99;100.00;52374.72;5007501;28;20015;-62
2022/09/11 00:19:03;;;;;;;;;;;;;;;-144.99;100.00;52366.56;5008037;28;19925;-65
2022/09/11 00:21:30;;;;;;;;;;;;;;;-144.99;100.00;52333.94;5009503;28;20302;-65
2022/09/11 00:23:56;;;;;;;;;;;;;;;-144.99;100.00;52342.09;5007950;28;19929;-65
2022/09/11 00:26:23;;;;;;;;;;;;;;;-144.99;100.00;52350.25;5007145;28;19930;-66
2022/09/11 00:28:51;;;;;;;;;;;;;;;-144.99;100.00;52358.41;5001390;28;19950;-65
2022/09/11 00:31:18;;;;;;;;;;;;;;;-144.99;100.00;52382.88;5001960;28;20410;-64
2022/09/11 00:33:44;;;;;;;;;;;;;;;-144.99;100.00;52362.50;5006976;28;19926;-65
2022/09/11 00:36:14;;;;;;;;;;;;;;;-144.99;100.00;52411.41;5007298;28;19957;-65
2022/09/11 00:38:41;;;;;;;;;;;;;;;-144.99;100.00;52333.94;5005071;28;19988;-67
2022/09/11 00:41:10;;;;;;;;;;;;;;;-144.99;100.00;52366.56;5006833;28;20306;-65
2022/09/11 00:43:54;;;;;;;;;;;;;;;-144.99;100.00;52364.53;5007366;28;19929;-66
2022/09/11 00:46:21;;;;;;;;;;;;;;;-144.99;100.00;52350.25;5006843;28;19937;-66
2022/09/11 00:48:48;;;;;;;;;;;;;;;-144.99;100.00;52358.41;5008929;28;19925;-67
2022/09/11 00:51:17;;;;;;;;;;;;;;;-144.99;100.00;52368.59;5001656;28;19932;-66
2022/09/11 00:53:44;;;;;;;;;;;;;;;-144.99;100.00;52354.34;5007198;28;19968;-66
2022/09/11 00:56:11;;;;;;;;;;;;;;;-144.99;100.00;52340.06;5001897;28;19929;-66
2022/09/11 00:58:39;;;;;;;;;;;;;;;-144.99;100.00;52370.63;5009213;28;19936;-65
2022/09/11 01:01:07;;;;;;;;;;;;;;;-144.99;100.00;52354.34;5004006;28;19925;-65
2022/09/11 01:03:34;;;;;;;;;;;;;;;-144.99;100.00;52366.56;5006626;28;19932;-65
2022/09/11 01:06:00;;;;;;;;;;;;;;;-144.99;100.00;52297.25;5006552;28;20391;-65
2022/09/11 01:08:28;;;;;;;;;;;;;;;-144.99;100.00;52321.72;5011818;28;19936;-65
2022/09/11 01:11:01;;;;;;;;;;;;;;;-144.99;100.00;52333.94;5008393;28;20445;-66
2022/09/11 01:13:33;;;;;;;;;;;;;;;-144.99;100.00;52352.28;5006889;28;19935;-73
2022/09/11 01:16:04;;;;;;;;;;;;;;;-144.99;100.00;52370.63;5014026;28;19929;-73
2022/09/11 01:18:34;;;;;;;;;;;;;;;-144.99;100.00;52346.19;5006782;28;19940;-73
2022/09/11 01:21:10;;;;;;;;;;;;;;;-144.99;100.00;52329.88;5019368;28;19933;-73
2022/09/11 01:23:45;;;;;;;;;;;;;;;-144.99;100.00;52372.69;5011368;28;20008;-71
2022/09/11 01:26:25;;;;;;;;;;;;;;;-144.99;100.00;52372.69;5022421;28;19929;-70
2022/09/11 01:28:59;;;;;;;;;;;;;;;-144.99;100.00;52331.91;5007144;28;20052;-69
2022/09/11 01:31:29;;;;;;;;;;;;;;;-144.99;100.00;52329.88;5010707;28;19936;-71
2022/09/11 01:33:59;;;;;;;;;;;;;;;-144.99;100.00;52350.25;5006795;28;20465;-72
2022/09/11 01:36:29;;;;;;;;;;;;;;;-144.99;100.00;52354.34;5011308;28;19937;-76
2022/09/11 01:38:57;;;;;;;;;;;;;;;-144.99;100.00;52358.41;5018411;28;19979;-75
2022/09/11 01:41:26;;;;;;;;;;;;;;;-144.99;100.00;52348.22;5005792;28;19936;-76
2022/09/11 01:43:56;;;;;;;;;;;;;;;-144.99;100.00;52342.09;5024524;28;19929;-66
2022/09/11 01:46:24;;;;;;;;;;;;;;;-144.99;100.00;52333.94;5011076;28;20252;-67
2022/09/11 01:48:54;;;;;;;;;;;;;;;-144.99;100.00;52350.25;5002992;28;19933;-67
2022/09/11 01:51:23;;;;;;;;;;;;;;;-144.99;100.00;52346.19;5011851;28;19959;-68
2022/09/11 01:53:51;;;;;;;;;;;;;;;-144.99;100.00;52333.94;5010475;28;20399;-67
2022/09/11 01:56:20;;;;;;;;;;;;;;;-144.99;100.00;52362.50;5009901;28;19936;-68
2022/09/11 01:58:47;;;;;;;;;;;;;;;-144.99;100.00;52354.34;5011868;28;19929;-70
2022/09/11 02:01:17;;;;;;;;;;;;;;;-144.99;100.00;52346.19;5012759;28;19972;-70
2022/09/11 02:03:46;;;;;;;;;;;;;;;-144.99;100.00;52321.72;5011338;28;20387;-70
2022/09/11 02:06:15;;;;;;;;;;;;;;;-144.99;100.00;52362.50;5010304;28;19931;-70
2022/09/11 02:08:45;;;;;;;;;;;;;;;-144.99;100.00;52331.91;5010345;28;20462;-70
2022/09/11 02:11:14;;;;;;;;;;;;;;;-144.99;100.00;52354.34;5015780;28;19929;-70
2022/09/11 02:13:45;;;;;;;;;;;;;;;-144.99;100.00;52333.94;4661407;28;10000082;-76
2022/09/11 02:16:16;;;;;;;;;;;;;;;-144.99;100.00;52346.19;5016741;28;19987;-74
2022/09/11 02:18:44;;;;;;;;;;;;;;;-144.99;100.00;52321.72;5019455;28;19949;-74
2022/09/11 02:21:11;;;;;;;;;;;;;;;-144.99;100.00;52358.41;5007167;28;19929;-74
2022/09/11 02:23:38;;;;;;;;;;;;;;;-144.99;100.00;52362.50;5005342;28;19925;-70
2022/09/11 02:26:06;;;;;;;;;;;;;;;-144.99;100.00;52333.94;5011004;28;19929;-69
2022/09/11 02:28:32;;;;;;;;;;;;;;;-144.99;100.00;52382.88;5011087;28;20176;-70
2022/09/11 02:31:02;;;;;;;;;;;;;;;-144.99;100.00;52342.09;5012092;28;19930;-70
2022/09/11 02:33:31;;;;;;;;;;;;;;;-144.99;100.00;52376.75;5010862;28;19926;-70
2022/09/11 02:36:03;;;;;;;;;;;;;;;-144.99;100.00;52346.19;5005056;28;19936;-75
2022/09/11 02:38:34;;;;;;;;;;;;;;;-144.99;100.00;52360.44;5012983;28;20250;-74
2022/09/11 02:41:08;;;;;;;;;;;;;;;-144.99;100.00;52338.03;5019493;28;20005;-72
2022/09/11 02:43:43;;;;;;;;;;;;;;;-144.99;100.00;52354.34;5016519;28;19926;-72
2022/09/11 02:46:22;;;;;;;;;;;;;;;-144.99;100.00;52301.34;5011789;28;19976;-71
2022/09/11 02:48:55;;;;;;;;;;;;;;;-144.99;100.00;52350.25;5011956;28;20276;-67
2022/09/11 02:51:27;;;;;;;;;;;;;;;-144.99;100.00;52338.03;5010893;28;20366;-69
2022/09/11 02:54:00;;;;;;;;;;;;;;;-144.99;100.00;52370.63;5013952;28;19930;-65
2022/09/11 02:56:31;;;;;;;;;;;;;;;-144.99;100.00;52340.06;5011532;28;20350;-67
2022/09/11 02:59:01;;;;;;;;;;;;;;;-144.99;100.00;52331.91;5011590;28;20382;-65
2022/09/11 03:01:27;;;;;;;;;;;;;;;-144.99;100.00;52370.63;5059919;22;19924;-70
2022/09/11 03:03:55;;;;;;;;;;;;;;;-144.99;100.00;52340.06;5088086;28;19924;-66
2022/09/11 03:06:22;;;;;;;;;;;;;;;-144.99;100.00;52346.19;5099809;28;19946;-66
2022/09/11 03:08:49;;;;;;;;;;;;;;;-144.99;100.00;52358.41;5090749;28;20300;-65
2022/09/11 03:11:16;;;;;;;;;;;;;;;-144.99;100.00;52360.44;5091134;28;20146;-66
2022/09/11 03:13:43;;;;;;;;;;;;;;;-144.99;100.00;52364.53;5089248;28;19935;-65
2022/09/11 03:16:10;;;;;;;;;;;;;;;-144.99;100.00;52317.66;5090846;28;19924;-66
2022/09/11 03:18:37;;;;;;;;;;;;;;;-144.99;100.00;52366.56;5091298;28;19924;-65
2022/09/11 03:21:05;;;;;;;;;;;;;;;-144.99;100.00;52346.19;5091421;28;19947;-64
2022/09/11 03:23:32;;;;;;;;;;;;;;;-144.99;100.00;52364.53;5085387;28;19931;-64
2022/09/11 03:25:58;;;;;;;;;;;;;;;-144.99;100.00;52378.78;5084371;28;19931;-64
2022/09/11 03:28:25;;;;;;;;;;;;;;;-144.99;100.00;52366.56;5088801;28;19954;-64
2022/09/11 03:30:52;;;;;;;;;;;;;;;-144.99;100.00;52348.22;5090984;28;20375;-65
2022/09/11 03:33:22;;;;;;;;;;;;;;;-144.99;100.00;52321.72;5084094;28;19935;-65
2022/09/11 03:35:48;;;;;;;;;;;;;;;-144.99;100.00;52350.25;5090788;28;19924;-66
2022/09/11 03:38:16;;;;;;;;;;;;;;;-144.99;100.00;52350.25;5091036;28;19969;-66
2022/09/11 03:40:43;;;;;;;;;;;;;;;-144.99;100.00;52364.53;5091863;28;20288;-69
2022/09/11 03:43:11;;;;;;;;;;;;;;;-144.99;100.00;52342.09;5090092;28;20299;-69
2022/09/11 03:45:37;;;;;;;;;;;;;;;-144.99;100.00;52358.41;5090833;28;19930;-69
2022/09/11 03:48:05;;;;;;;;;;;;;;;-144.99;100.00;52366.56;5090718;28;19947;-68
2022/09/11 03:50:34;;;;;;;;;;;;;;;-144.99;100.00;52395.09;5091396;28;19924;-68
2022/09/11 03:53:01;;;;;;;;;;;;;;;-144.99;100.00;52362.50;5086722;28;19930;-67
2022/09/11 03:55:30;;;;;;;;;;;;;;;-144.99;100.00;52366.56;5090351;28;19924;-68
2022/09/11 03:57:58;;;;;;;;;;;;;;;-144.99;100.00;52370.63;5087204;28;19925;-73
2022/09/11 04:00:24;;;;;;;;;;;;;;;-144.99;100.00;52374.72;5082859;28;19973;-74
2022/09/11 04:02:50;;;;;;;;;;;;;;;-144.99;100.00;52364.53;5080527;28;19925;-73
2022/09/11 04:05:17;;;;;;;;;;;;;;;-144.99;100.00;52356.38;5087450;28;19928;-74
2022/09/11 04:07:43;;;;;;;;;;;;;;;-144.99;100.00;52368.59;5081226;28;19925;-75
2022/09/11 04:10:10;;;;;;;;;;;;;;;-144.99;100.00;52380.84;5083192;28;19924;-73
2022/09/11 04:12:38;;;;;;;;;;;;;;;-144.99;100.00;52382.88;5089674;28;19924;-73
2022/09/11 04:15:05;;;;;;;;;;;;;;;-144.99;100.00;52344.16;5079777;28;19928;-73
2022/09/11 04:17:31;;;;;;;;;;;;;;;-144.99;100.00;52395.09;5086819;28;19924;-75
2022/09/11 04:19:57;;;;;;;;;;;;;;;-144.99;100.00;52391.03;5085371;28;19931;-74
2022/09/11 04:22:25;;;;;;;;;;;;;;;-144.99;100.00;52358.41;5090104;28;19976;-73
2022/09/11 04:24:51;;;;;;;;;;;;;;;-144.99;100.00;52364.53;5087404;28;19966;-74
2022/09/11 04:27:18;;;;;;;;;;;;;;;-144.99;100.00;52338.03;5080885;28;20408;-74
2022/09/11 04:29:46;;;;;;;;;;;;;;;-144.99;100.00;52362.50;5084661;28;19954;-73
2022/09/11 04:32:12;;;;;;;;;;;;;;;-144.99;100.00;52342.09;5089494;28;20068;-73
2022/09/11 04:34:38;;;;;;;;;;;;;;;-144.99;100.00;52380.84;5090248;28;19931;-73
2022/09/11 04:37:05;;;;;;;;;;;;;;;-144.99;100.00;52366.56;5084515;28;20281;-69
2022/09/11 04:39:31;;;;;;;;;;;;;;;-144.99;100.00;52350.25;5089838;28;19930;-67
2022/09/11 04:41:58;;;;;;;;;;;;;;;-144.99;100.00;52366.56;5089487;28;20327;-67
2022/09/11 04:44:25;;;;;;;;;;;;;;;-144.99;100.00;52354.34;5090366;28;19924;-76
2022/09/11 04:46:52;;;;;;;;;;;;;;;-144.99;100.00;52378.78;5084879;28;19924;-76
2022/09/11 04:49:19;;;;;;;;;;;;;;;-144.99;100.00;52358.41;5090442;28;19924;-73
2022/09/11 04:51:45;;;;;;;;;;;;;;;-144.99;100.00;52419.56;5078764;28;19924;-74
2022/09/11 04:54:13;;;;;;;;;;;;;;;-144.99;100.00;52370.63;5087431;28;19924;-74
2022/09/11 04:56:40;;;;;;;;;;;;;;;-144.99;100.00;52354.34;5081602;28;19924;-69
2022/09/11 04:59:08;;;;;;;;;;;;;;;-144.99;100.00;52350.25;5086879;28;19924;-68
2022/09/11 05:01:34;;;;;;;;;;;;;;;-144.99;100.00;52370.63;5089090;28;19974;-70
2022/09/11 05:04:02;;;;;;;;;;;;;;;-144.99;100.00;52362.50;5090012;28;19924;-70
2022/09/11 05:06:29;;;;;;;;;;;;;;;-144.99;100.00;52333.94;5085039;28;20396;-71
2022/09/11 05:08:56;;;;;;;;;;;;;;;-144.99;100.00;52344.16;5088061;28;19993;-69
2022/09/11 05:11:24;;;;;;;;;;;;;;;-144.99;100.00;52360.44;5089635;28;19932;-69
2022/09/11 05:13:51;;;;;;;;;;;;;;;-144.99;100.00;52366.56;5090622;28;19978;-82
2022/09/11 05:16:18;;;;;;;;;;;;;;;-144.99;100.00;52346.19;5104870;28;19968;-83
2022/09/11 05:18:50;;;;;;;;;;;;;;;-144.99;100.00;52309.50;5095971;28;19925;-80
2022/09/11 05:21:19;;;;;;;;;;;;;;;-144.99;100.00;52356.38;5086627;28;20353;-70
2022/09/11 05:23:47;;;;;;;;;;;;;;;-144.99;100.00;52342.09;5089257;28;20412;-70
2022/09/11 05:26:14;;;;;;;;;;;;;;;-144.99;100.00;52374.72;5088890;28;19958;-69
2022/09/11 05:28:40;;;;;;;;;;;;;;;-144.99;100.00;52350.25;5088049;28;19930;-69
2022/09/11 05:31:11;;;;;;;;;;;;;;;-144.99;100.00;52350.25;5088884;28;19930;-69
2022/09/11 05:33:38;;;;;;;;;;;;;;;-144.99;100.00;52348.22;5086227;28;19924;-69
2022/09/11 05:36:05;;;;;;;;;;;;;;;-144.99;100.00;52388.97;5089366;28;19975;-69
2022/09/11 05:38:34;;;;;;;;;;;;;;;-144.99;100.00;52346.19;5081352;28;19939;-70
2022/09/11 05:41:00;;;;;;;;;;;;;;;-144.99;100.00;52370.63;5098252;28;19989;-71
2022/09/11 05:43:27;;;;;;;;;;;;;;;-144.99;100.00;52366.56;5100596;28;19934;-72
2022/09/11 05:45:54;;;;;;;;;;;;;;;-144.99;100.00;52346.19;5104315;28;20007;-70
2022/09/11 05:48:20;;;;;;;;;;;;;;;-144.99;100.00;52333.94;5099704;28;19924;-69
2022/09/11 05:50:51;;;;;;;;;;;;;;;-144.99;100.00;52315.59;5096200;28;20444;-66
2022/09/11 05:53:19;;;;;;;;;;;;;;;-144.99;100.00;52344.16;5108696;28;19984;-70
2022/09/11 05:55:47;;;;;;;;;;;;;;;-144.99;100.00;52356.38;5111411;28;20101;-69
2022/09/11 05:58:14;;;;;;;;;;;;;;;-144.99;100.00;52362.50;5110001;28;20026;-72
2022/09/11 06:00:41;;;;;;;;;;;;;;;-144.99;100.00;52364.53;5103515;28;19925;-71
2022/09/11 06:03:07;;;;;;;;;;;;;;;-144.99;100.00;52340.06;5091114;28;20345;-72
2022/09/11 06:05:34;;;;;;;;;;;;;;;-144.99;100.00;52366.56;5098718;28;19924;-71
2022/09/11 06:08:01;;;;;;;;;;;;;;;-144.99;100.00;52321.72;5104891;28;19924;-72
2022/09/11 06:10:27;;;;;;;;;;;;;;;-144.99;100.00;52356.38;5092246;28;19928;-77
2022/09/11 06:12:55;;;;;;;;;;;;;;;-144.99;100.00;52319.69;5084332;28;19934;-77
2022/09/11 06:15:21;;;;;;;;;;;;;;;-144.99;100.00;52338.03;5092013;28;19947;-72
2022/09/11 06:17:48;;;;;;;;;;;;;;;-144.99;100.00;52317.66;5093114;28;19931;-75
2022/09/11 06:20:15;;;;;;;;;;;;;;;-144.99;100.00;52360.44;5086010;28;19932;-76
2022/09/11 06:22:41;;;;;;;;;;;;;;;-144.99;100.00;52358.41;5093540;28;20038;-78
2022/09/11 06:25:08;;;;;;;;;;;;;;;-144.99;100.00;52372.69;5093870;28;19981;-75
2022/09/11 06:27:35;;;;;;;;;;;;;;;-144.99;100.00;52325.81;5092552;28;19931;-76
2022/09/11 06:30:02;;;;;;;;;;;;;;;-144.99;100.00;52338.03;5091919;28;19931;-75
2022/09/11 06:32:29;;;;;;;;;;;;;;;-144.99;100.00;52356.38;5094464;28;20353;-68
2022/09/11 06:34:55;;;;;;;;;;;;;;;-144.99;100.00;52342.09;5092630;28;19931;-68
2022/09/11 06:37:21;;;;;;;;;;;;;;;-144.99;100.00;52309.50;5092363;28;19928;-71
2022/09/11 06:39:48;;;;;;;;;;;;;;;-144.99;100.00;52366.56;5089361;28;20296;-68
2022/09/11 06:42:14;;;;;;;;;;;;;;;-144.99;100.00;52358.41;5085075;28;19935;-70
2022/09/11 06:44:41;;;;;;;;;;;;;;;-144.99;100.00;52338.03;5089744;28;19931;-71
2022/09/11 06:47:09;;;;;;;;;;;;;;;-144.99;100.00;52329.88;5092546;28;19928;-71
2022/09/11 06:49:35;;;;;;;;;;;;;;;-144.99;100.00;52323.75;5091611;28;20279;-72
2022/09/11 06:52:02;;;;;;;;;;;;;;;-144.99;100.00;52313.56;5089731;28;19930;-69
2022/09/11 06:54:28;;;;;;;;;;;;;;;-144.99;100.00;52338.03;5087683;28;20014;-70
2022/09/11 06:56:54;;;;;;;;;;;;;;;-144.99;100.00;52289.13;5084044;28;19934;-74
2022/09/11 06:59:23;;;;;;;;;;;;;;;-144.99;100.00;52313.56;5092231;28;19971;-74
2022/09/11 07:01:50;;;;;;;;;;;;;;;-144.99;100.00;52295.22;5088756;28;20300;-74
2022/09/11 07:04:18;;;;;;;;;;;;;;;-144.99;100.00;52360.44;5087703;28;19924;-73
2022/09/11 07:06:44;;;;;;;;;;;;;;;-144.99;100.00;52301.34;5092317;28;20398;-71
2022/09/11 07:09:11;;;;;;;;;;;;;;;-144.99;100.00;52301.34;5081979;28;19925;-73
2022/09/11 07:11:42;;;;;;;;;;;;;;;-144.99;100.00;52336.00;5081640;28;19932;-73
2022/09/11 07:14:09;;;;;;;;;;;;;;;-144.99;100.00;52336.00;5092075;28;19947;-71
2022/09/11 07:16:35;;;;;;;;;;;;;;;-144.99;100.00;52293.19;5090147;28;20301;-73
2022/09/11 07:19:03;;;;;;;;;;;;;;;-144.99;100.00;52317.66;5091410;28;19930;-66
2022/09/11 07:21:33;;;;;;;;;;;;;;;-144.99;100.00;52342.09;5089310;28;20292;-65
2022/09/11 07:23:59;;;;;;;;;;;;;;;-144.99;100.00;52329.88;5091418;28;19924;-67
2022/09/11 07:26:27;;;;;;;;;;;;;;;-144.99;100.00;52309.50;5090857;28;19924;-66
2022/09/11 07:28:54;;;;;;;;;;;;;;;-144.99;100.00;52293.19;5091468;28;19975;-67
2022/09/11 07:31:22;;;;;;;;;;;;;;;-144.99;100.00;52313.56;5088560;28;20343;-67
2022/09/11 07:33:50;;;;;;;;;;;;;;;-144.99;100.00;52321.72;5086894;28;19930;-67
2022/09/11 07:36:17;;;;;;;;;;;;;;;-144.99;100.00;52305.41;5091635;28;19924;-68
2022/09/11 07:38:46;;;;;;;;;;;;;;;-144.99;100.00;52297.25;5091929;28;19924;-69
2022/09/11 07:41:13;;;;;;;;;;;;;;;-144.99;100.00;52325.81;5089420;28;19931;-70
2022/09/11 07:43:40;;;;;;;;;;;;;;;-144.99;100.00;52301.34;5087171;28;20315;-70
2022/09/11 07:46:07;;;;;;;;;;;;;;;-144.99;100.00;52325.81;5090312;28;19939;-70
2022/09/11 07:48:34;;;;;;;;;;;;;;;-144.99;100.00;52299.31;5091282;28;20019;-69
2022/09/11 07:51:02;;;;;;;;;;;;;;;-144.99;100.00;52293.19;5091774;28;19946;-69
2022/09/11 07:53:28;;;;;;;;;;;;;;;-144.99;100.00;52317.66;5082905;28;19924;-70
2022/09/11 07:55:56;;;;;;;;;;;;;;;-144.99;100.00;52293.19;5088858;28;19939;-70
2022/09/11 07:58:23;;;;;;;;;;;;;;;-144.99;100.00;52268.72;5090590;28;20284;-71
2022/09/11 08:00:49;;;;;;;;;;;;;;;-144.99;99.38;52252.44;5091200;28;19924;-71
2022/09/11 08:03:16;;;;;;;;;;;;;;;-144.99;97.67;52258.53;5086061;28;19924;-71
2022/09/11 08:05:42;;;;;;;;;;;;;;;-144.99;95.65;52287.06;5089432;28;19924;-71
2022/09/11 08:08:09;;;;;;;;;;;;;;;-144.99;94.34;52280.97;5090156;28;19928;-71
2022/09/11 08:10:37;;;;;;;;;;;;;;;-144.99;93.14;52283.00;5087743;28;19924;-71
2022/09/11 08:13:05;;;;;;;;;;;;;;;-144.99;90.28;52254.47;5084251;28;20027;-71
2022/09/11 08:15:31;;;;;;;;;;;;;;;-144.99;88.50;52268.72;5089970;28;20345;-71
2022/09/11 08:17:58;;;;;;;;;;;;;;;-144.99;87.35;52272.81;5090433;28;19924;-71
2022/09/11 08:20:24;;;;;;;;;;;;;;;-144.99;87.63;52256.50;5090097;28;20380;-71
2022/09/11 08:22:51;;;;;;;;;;;;;;;-144.99;86.05;52301.34;5088544;28;19924;-72
2022/09/11 08:25:17;;;;;;;;;;;;;;;-144.99;86.66;52264.66;5083920;28;19938;-70
2022/09/11 08:27:43;;;;;;;;;;;;;;;-144.99;86.96;52297.25;5082601;28;20010;-72
2022/09/11 08:30:12;;;;;;;;;;;;;;;-144.99;85.55;52289.13;5087263;28;19930;-71
2022/09/11 08:32:39;;;;;;;;;;;;;;;-144.99;85.68;52258.53;5084733;28;19960;-71
2022/09/11 08:35:05;;;;;;;;;;;;;;;-144.99;85.21;52260.56;5081623;28;20293;-71
2022/09/11 08:37:32;;;;;;;;;;;;;;;-144.99;83.87;52268.72;5082522;28;19924;-71
2022/09/11 08:39:59;;;;;;;;;;;;;;;-144.99;81.86;52280.97;5088089;28;19924;-71
2022/09/11 08:42:26;;;;;;;;;;;;;;;-144.99;81.34;52301.34;5087753;28;19947;-73
2022/09/11 08:44:54;;;;;;;;;;;;;;;-144.99;79.90;52285.03;5084739;28;19928;-73
2022/09/11 08:47:24;;;;;;;;;;;;;;;-144.99;77.28;52280.97;5071469;28;19944;-73
2022/09/11 08:49:53;;;;;;;;;;;;;;;-144.99;74.05;52260.56;5088488;28;20381;-73
2022/09/11 08:52:20;;;;;;;;;;;;;;;-144.99;72.77;52219.81;5082889;28;20400;-74
2022/09/11 08:54:46;;;;;;;;;;;;;;;-144.99;72.75;52293.19;5076630;28;19928;-70
2022/09/11 08:57:17;;;;;;;;;;;;;;;-144.99;72.84;52268.72;5085050;28;19946;-71
2022/09/11 08:59:56;;;;;;;;;;;;;;;-144.99;72.35;52311.53;5077143;28;19928;-72
2022/09/11 09:02:37;;;;;;;;;;;;;;;-144.99;71.86;52211.66;5099280;22;19934;-68
2022/09/11 09:05:14;;;;;;;;;;;;;;;-144.99;70.96;52244.28;5059723;28;19928;-68
2022/09/11 09:07:46;;;;;;;;;;;;;;;-144.99;71.11;52242.22;5063358;28;19928;-67
2022/09/11 09:10:20;;;;;;;;;;;;;;;-144.99;70.25;52244.28;5072883;28;20249;-69
2022/09/11 09:12:51;;;;;;;;;;;;;;;-144.99;70.06;52205.53;5081743;28;19935;-69
2022/09/11 09:15:24;;;;;;;;;;;;;;;-144.99;66.99;52179.06;5077696;28;20438;-67
2022/09/11 09:17:57;;;;;;;;;;;;;;;-144.99;63.62;52170.91;5082003;28;20020;-68
2022/09/11 09:20:28;;;;;;;;;;;;;;;-144.99;60.26;52185.16;5074433;28;20492;-70
2022/09/11 09:22:57;;;;;;;;;;;;;;;-144.99;57.74;52213.69;5081790;28;19931;-70
2022/09/11 09:25:25;;;;;;;;;;;;;;;-144.99;58.12;52207.59;5083040;28;20015;-71
2022/09/11 09:27:54;;;;;;;;;;;;;;;-144.99;57.94;52211.66;5074514;28;19971;-69
2022/09/11 09:30:23;;;;;;;;;;;;;;;-144.99;59.15;52242.22;5080873;28;19980;-70
2022/09/11 09:32:52;;;;;;;;;;;;;;;-144.99;60.16;52183.13;5083169;28;20365;-70
2022/09/11 09:35:22;;;;;;;;;;;;;;;-144.99;59.51;52244.28;5083140;28;20009;-70
2022/09/11 09:37:48;;;;;;;;;;;;;;;-144.99;58.88;52203.50;5087516;28;20387;-70
2022/09/11 09:40:16;;;;;;;;;;;;;;;-144.99;58.59;52199.44;5085847;28;19929;-69
2022/09/11 09:42:49;;;;;;;;;;;;;;;-144.99;58.29;52164.78;5091012;28;20019;-70
2022/09/11 09:45:26;;;;;;;;;;;;;;;-144.99;56.69;52185.16;5090860;28;20019;-70
2022/09/11 09:47:52;;;;;;;;;;;;;;;-144.99;54.84;52170.91;5090864;28;19928;-69
2022/09/11 09:50:22;;;;;;;;;;;;;;;-144.99;53.32;52162.75;5089425;28;19970;-70
2022/09/11 09:52:49;;;;;;;;;;;;;;;-144.99;51.84;52183.13;5090420;28;20019;-70
2022/09/11 09:55:17;;;;;;;;;;;;;;;-144.99;51.64;52179.06;5090499;28;19923;-68
2022/09/11 09:57:44;;;;;;;;;;;;;;;-144.99;50.71;52150.53;5089381;28;19971;-69
2022/09/11 10:00:16;;;;;;;;;;;;;;;-144.99;49.36;52130.13;4377669;28;10000764;-68
2022/09/11 10:02:44;;;;;;;;;;;;;;;-144.99;47.08;52091.41;5089504;28;19924;-69
2022/09/11 10:05:16;;;;;;;;;;;;;;;-144.99;45.48;52107.72;5091037;28;19928;-69
2022/09/11 10:07:47;;;;;;;;;;;;;;;-144.99;44.05;52093.44;5091352;28;20445;-69
2022/09/11 10:10:20;;;;;;;;;;;;;;;-144.99;43.86;52126.06;5083466;28;20047;-69
2022/09/11 10:12:47;;;;;;;;;;;;;;;-144.99;44.10;52146.44;5089421;28;19924;-69
2022/09/11 10:15:18;;;;;;;;;;;;;;;-144.99;44.90;52174.97;5089343;28;20060;-69
2022/09/11 10:17:44;;;;;;;;;;;;;;;-144.99;46.39;52219.81;5089278;28;19996;-69
2022/09/11 10:20:21;;;;;;;;;;;;;;;-144.99;47.93;52215.75;5088291;28;19927;-68
2022/09/11 10:22:50;;;;;;;;;;;;;;;-144.99;49.35;52219.81;5085167;28;19924;-68
2022/09/11 10:25:18;;;;;;;;;;;;;;;-144.99;50.67;52236.13;5090849;28;20039;-70
2022/09/11 10:27:46;;;;;;;;;;;;;;;-144.99;51.29;52219.81;5088553;28;20149;-69
2022/09/11 10:30:27;;;;;;;;;;;;;;;-144.99;49.75;52142.38;5088429;28;19928;-68
2022/09/11 10:32:54;;;;;;;;;;;;;;;-144.99;47.86;52166.81;5090002;28;19928;-70
2022/09/11 10:35:21;;;;;;;;;;;;;;;-144.99;46.41;52156.63;5090008;28;20439;-68
2022/09/11 10:37:59;;;;;;;;;;;;;;;-144.99;46.16;52146.44;5089703;28;20411;-69
2022/09/11 10:40:25;;;;;;;;;;;;;;;-144.99;46.33;52170.91;5084447;28;19934;-68
2022/09/11 10:42:53;;;;;;;;;;;;;;;-144.99;46.97;52248.34;5087756;28;19928;-69
2022/09/11 10:45:21;;;;;;;;;;;;;;;-144.99;48.16;52215.75;5076463;28;19928;-69
2022/09/11 10:47:47;;;;;;;;;;;;;;;-144.99;48.21;52191.28;5083810;28;19928;-70
2022/09/11 10:50:22;;;;;;;;;;;;;;;-144.99;47.86;52158.66;5081167;28;19982;-70
2022/09/11 10:52:53;;;;;;;;;;;;;;;-144.99;45.84;52138.28;5083382;28;20384;-71
2022/09/11 10:55:21;;;;;;;;;;;;;;;-144.99;44.86;52089.38;5079762;28;20100;-70
2022/09/11 10:57:51;;;;;;;;;;;;;;;-144.99;44.26;52162.75;5087295;28;19967;-69
2022/09/11 11:00:19;;;;;;;;;;;;;;;-144.99;43.88;52174.97;5086091;28;19928;-68
2022/09/11 11:02:46;;;;;;;;;;;;;;;-144.99;44.33;52181.09;5081403;28;19958;-70
2022/09/11 11:05:18;;;;;;;;;;;;;;;-144.99;45.25;52158.66;5087796;28;20026;-69
2022/09/11 11:08:01;;;;;;;;;;;;;;;-144.99;46.25;52197.41;5087365;28;19928;-68
2022/09/11 11:10:36;;;;;;;;;;;;;;;-144.99;46.60;52215.75;5085812;28;19928;-67
2022/09/11 11:13:12;;;;;;;;;;;;;;;-144.99;46.40;52191.28;5085713;28;20470;-67
2022/09/11 11:15:50;;;;;;;;;;;;;;;-144.99;45.32;52093.44;5085104;28;19932;-68
2022/09/11 11:18:22;;;;;;;;;;;;;;;-144.99;44.39;52199.44;5083845;28;20282;-68
2022/09/11 11:20:54;;;;;;;;;;;;;;;-144.99;43.63;52170.91;5085874;28;20299;-67
2022/09/11 11:23:35;;;;;;;;;;;;;;;-144.99;42.37;52146.44;5085736;28;19970;-68
2022/09/11 11:26:13;;;;;;;;;;;;;;;-144.99;42.09;52170.91;5070333;28;19939;-67
2022/09/11 11:28:59;;;;;;;;;;;;;;;-144.99;42.45;51958.94;5083408;28;20020;-68
2022/09/11 11:31:31;;;;;;;;;;;;;;;-144.99;42.12;51987.47;5081020;28;19924;-68
2022/09/11 11:34:14;;;;;;;;;;;;;;;-144.99;41.34;51926.34;5073423;28;19935;-68
2022/09/11 11:36:42;;;;;;;;;;;;;;;-144.99;39.92;51926.34;5078912;28;19928;-68
2022/09/11 11:39:17;;;;;;;;;;;;;;;-144.99;38.42;51889.66;5075543;28;19928;-68
2022/09/11 11:41:46;;;;;;;;;;;;;;;-144.99;36.94;51885.56;5077802;28;19957;-68
2022/09/11 11:44:17;;;;;;;;;;;;;;;-144.99;36.35;51885.56;5077774;28;19927;-68
2022/09/11 11:46:45;;;;;;;;;;;;;;;-144.99;35.31;52032.31;5068187;28;19943;-71
2022/09/11 11:49:15;;;;;;;;;;;;;;;-144.99;35.66;51901.88;5074122;28;20260;-68
2022/09/11 11:51:47;;;;;;;;;;;;;;;-144.99;35.16;51914.09;5073279;28;19928;-69
2022/09/11 11:54:17;;;;;;;;;;;;;;;-144.99;34.72;51879.47;5080927;28;19929;-69
2022/09/11 11:56:47;;;;;;;;;;;;;;;-144.99;34.57;51871.31;5079830;28;19974;-70
2022/09/11 11:59:17;;;;;;;;;;;;;;;-144.99;33.94;51861.13;5077028;28;19928;-70
2022/09/11 12:01:47;;;;;;;;;;;;;;;-144.99;33.84;51869.28;5078540;28;20312;-70
2022/09/11 12:04:19;;;;;;;;;;;;;;;-144.99;33.46;51820.38;5074176;28;19979;-70
2022/09/11 12:06:45;;;;;;;;;;;;;;;-144.99;32.79;51836.66;5081933;28;20081;-71
2022/09/11 12:09:15;;;;;;;;;;;;;;;-144.99;32.80;51893.72;5083993;28;19932;-70
2022/09/11 12:11:43;;;;;;;;;;;;;;;-144.99;32.89;51908.00;5079921;28;19939;-71
2022/09/11 12:14:25;;;;;;;;;;;;;;;-144.99;33.67;52032.31;5084013;28;19935;-70
2022/09/11 12:16:51;;;;;;;;;;;;;;;-144.99;34.21;52028.22;5074054;28;19932;-70
2022/09/11 12:19:19;;;;;;;;;;;;;;;-144.99;34.35;52016.00;5080339;28;19932;-69
2022/09/11 12:22:06;;;;;;;;;;;;;;;-144.99;34.46;52077.16;5087224;28;19934;-69
2022/09/11 12:24:59;;;;;;;;;;;;;;;-144.99;35.18;52134.22;5079821;28;20491;-69
2022/09/11 12:27:49;;;;;;;;;;;;;;;-144.99;36.96;52154.59;5050861;28;20284;-68
2022/09/11 12:30:22;;;;;;;;;;;;;;;-144.99;37.40;52113.84;5076118;28;20532;-70